sensor_id;sensor_type;location;lat;lon;timestamp;P1;durP1;ratioP1;P2;durP2;ratioP2
14377;SDS011;7272;53.668;9.578;2022-09-17T00:02:37;14.03;;;3.90;;
14377;SDS011;7272;53.668;9.578;2022-09-17T00:05:39;12.97;;;3.33;;
14377;SDS011;7272;53.668;9.578;2022-09-17T00:08:41;10.47;;;3.37;;
14377;SDS011;7272;53.668;9.578;2022-09-17T00:11:43;12.70;;;3.97;;
14377;SDS011;7272;53.668;9.578;2022-09-17T00:14:46;13.27;;;3.23;;
14377;SDS011;7272;53.668;9.578;2022-09-17T00:17:52;12.07;;;3.27;;
14377;SDS011;7272;53.668;9.578;2022-09-17T00:20:56;16.48;;;3.97;;
14377;SDS011;7272;53.668;9.578;2022-09-17T00:23:59;13.23;;;3.77;;
14377;SDS011;7272;53.668;9.578;2022-09-17T00:27:02;8.67;;;3.60;;
14377;SDS011;7272;53.668;9.578;2022-09-17T00:30:06;10.03;;;3.40;;
14377;SDS011;7272;53.668;9.578;2022-09-17T00:33:10;11.53;;;3.47;;
14377;SDS011;7272;53.668;9.578;2022-09-17T00:36:12;11.83;;;3.17;;
14377;SDS011;7272;53.668;9.578;2022-09-17T00:39:15;9.43;;;3.27;;
14377;SDS011;7272;53.668;9.578;2022-09-17T00:42:16;12.47;;;3.83;;
14377;SDS011;7272;53.668;9.578;2022-09-17T00:45:21;9.57;;;3.13;;
14377;SDS011;7272;53.668;9.578;2022-09-17T00:48:24;12.90;;;3.70;;
14377;SDS011;7272;53.668;9.578;2022-09-17T00:51:27;10.77;;;3.30;;
14377;SDS011;7272;53.668;9.578;2022-09-17T00:54:40;9.73;;;3.77;;
14377;SDS011;7272;53.668;9.578;2022-09-17T00:57:46;9.67;;;3.37;;
14377;SDS011;7272;53.668;9.578;2022-09-17T01:00:50;9.47;;;3.03;;
14377;SDS011;7272;53.668;9.578;2022-09-17T01:03:52;11.13;;;2.87;;
14377;SDS011;7272;53.668;9.578;2022-09-17T01:06:57;9.50;;;3.60;;
14377;SDS011;7272;53.668;9.578;2022-09-17T01:10:07;10.57;;;3.40;;
14377;SDS011;7272;53.668;9.578;2022-09-17T01:13:24;9.17;;;3.30;;
14377;SDS011;7272;53.668;9.578;2022-09-17T01:16:37;10.50;;;3.37;;
14377;SDS011;7272;53.668;9.578;2022-09-17T01:20:00;10.27;;;4.17;;
14377;SDS011;7272;53.668;9.578;2022-09-17T01:27:30;10.17;;;3.37;;
14377;SDS011;7272;53.668;9.578;2022-09-17T01:30:58;10.17;;;3.30;;
14377;SDS011;7272;53.668;9.578;2022-09-17T01:34:18;9.43;;;3.57;;
14377;SDS011;7272;53.668;9.578;2022-09-17T01:37:27;7.07;;;2.80;;
14377;SDS011;7272;53.668;9.578;2022-09-17T01:40:35;9.77;;;3.10;;
14377;SDS011;7272;53.668;9.578;2022-09-17T01:43:42;12.37;;;3.10;;
14377;SDS011;7272;53.668;9.578;2022-09-17T01:46:50;10.63;;;3.37;;
14377;SDS011;7272;53.668;9.578;2022-09-17T01:49:59;8.18;;;2.80;;
14377;SDS011;7272;53.668;9.578;2022-09-17T01:53:04;11.53;;;3.63;;
14377;SDS011;7272;53.668;9.578;2022-09-17T01:56:08;13.57;;;3.60;;
14377;SDS011;7272;53.668;9.578;2022-09-17T01:59:15;11.80;;;3.77;;
14377;SDS011;7272;53.668;9.578;2022-09-17T02:02:22;10.93;;;2.83;;
14377;SDS011;7272;53.668;9.578;2022-09-17T02:05:31;10.80;;;3.37;;
14377;SDS011;7272;53.668;9.578;2022-09-17T02:08:38;11.87;;;2.80;;
14377;SDS011;7272;53.668;9.578;2022-09-17T02:11:44;10.63;;;3.67;;
14377;SDS011;7272;53.668;9.578;2022-09-17T02:14:51;11.27;;;3.13;;
14377;SDS011;7272;53.668;9.578;2022-09-17T02:17:59;9.17;;;3.03;;
14377;SDS011;7272;53.668;9.578;2022-09-17T02:21:07;10.03;;;3.83;;
14377;SDS011;7272;53.668;9.578;2022-09-17T02:24:15;11.23;;;3.55;;
14377;SDS011;7272;53.668;9.578;2022-09-17T02:27:22;7.10;;;2.90;;
14377;SDS011;7272;53.668;9.578;2022-09-17T02:30:31;8.93;;;2.90;;
14377;SDS011;7272;53.668;9.578;2022-09-17T02:33:35;8.43;;;2.90;;
14377;SDS011;7272;53.668;9.578;2022-09-17T02:36:38;8.73;;;2.70;;
14377;SDS011;7272;53.668;9.578;2022-09-17T02:39:40;6.27;;;2.30;;
14377;SDS011;7272;53.668;9.578;2022-09-17T02:42:47;6.93;;;2.63;;
14377;SDS011;7272;53.668;9.578;2022-09-17T02:46:03;9.33;;;2.73;;
14377;SDS011;7272;53.668;9.578;2022-09-17T02:49:25;9.53;;;2.67;;
14377;SDS011;7272;53.668;9.578;2022-09-17T02:52:40;10.57;;;3.55;;
14377;SDS011;7272;53.668;9.578;2022-09-17T02:55:57;11.37;;;2.83;;
14377;SDS011;7272;53.668;9.578;2022-09-17T02:59:07;11.73;;;3.53;;
14377;SDS011;7272;53.668;9.578;2022-09-17T03:02:17;11.87;;;3.40;;
14377;SDS011;7272;53.668;9.578;2022-09-17T03:05:24;7.27;;;2.97;;
14377;SDS011;7272;53.668;9.578;2022-09-17T03:08:28;10.00;;;3.37;;
14377;SDS011;7272;53.668;9.578;2022-09-17T03:11:32;9.87;;;3.23;;
14377;SDS011;7272;53.668;9.578;2022-09-17T03:14:34;13.60;;;3.53;;
14377;SDS011;7272;53.668;9.578;2022-09-17T03:17:36;10.40;;;2.70;;
14377;SDS011;7272;53.668;9.578;2022-09-17T03:20:39;12.25;;;3.65;;
14377;SDS011;7272;53.668;9.578;2022-09-17T03:23:41;10.65;;;3.85;;
14377;SDS011;7272;53.668;9.578;2022-09-17T03:26:43;7.13;;;2.83;;
14377;SDS011;7272;53.668;9.578;2022-09-17T03:29:46;6.10;;;2.10;;
14377;SDS011;7272;53.668;9.578;2022-09-17T03:32:48;7.07;;;2.40;;
14377;SDS011;7272;53.668;9.578;2022-09-17T03:35:51;9.57;;;3.13;;
14377;SDS011;7272;53.668;9.578;2022-09-17T03:38:53;10.27;;;3.03;;
14377;SDS011;7272;53.668;9.578;2022-09-17T03:41:55;11.40;;;3.40;;
14377;SDS011;7272;53.668;9.578;2022-09-17T03:44:57;9.03;;;3.17;;
14377;SDS011;7272;53.668;9.578;2022-09-17T03:47:59;7.70;;;2.63;;
14377;SDS011;7272;53.668;9.578;2022-09-17T03:51:03;12.83;;;3.57;;
14377;SDS011;7272;53.668;9.578;2022-09-17T03:54:05;10.53;;;3.23;;
14377;SDS011;7272;53.668;9.578;2022-09-17T03:57:08;12.70;;;2.73;;
14377;SDS011;7272;53.668;9.578;2022-09-17T04:00:10;9.30;;;3.13;;
14377;SDS011;7272;53.668;9.578;2022-09-17T04:03:14;7.60;;;2.27;;
14377;SDS011;7272;53.668;9.578;2022-09-17T04:06:18;13.80;;;3.13;;
14377;SDS011;7272;53.668;9.578;2022-09-17T04:09:19;11.30;;;3.27;;
14377;SDS011;7272;53.668;9.578;2022-09-17T04:12:21;9.03;;;3.10;;
14377;SDS011;7272;53.668;9.578;2022-09-17T04:15:23;8.90;;;3.13;;
14377;SDS011;7272;53.668;9.578;2022-09-17T04:18:25;7.40;;;2.60;;
14377;SDS011;7272;53.668;9.578;2022-09-17T04:21:28;7.37;;;2.90;;
14377;SDS011;7272;53.668;9.578;2022-09-17T04:24:30;8.60;;;3.10;;
14377;SDS011;7272;53.668;9.578;2022-09-17T04:27:32;7.60;;;2.50;;
14377;SDS011;7272;53.668;9.578;2022-09-17T04:30:34;10.00;;;2.70;;
14377;SDS011;7272;53.668;9.578;2022-09-17T04:33:36;6.73;;;2.43;;
14377;SDS011;7272;53.668;9.578;2022-09-17T04:36:39;8.73;;;2.50;;
14377;SDS011;7272;53.668;9.578;2022-09-17T04:39:41;10.97;;;3.07;;
14377;SDS011;7272;53.668;9.578;2022-09-17T04:42:43;8.97;;;2.97;;
14377;SDS011;7272;53.668;9.578;2022-09-17T04:45:45;8.27;;;2.70;;
14377;SDS011;7272;53.668;9.578;2022-09-17T04:48:47;9.77;;;2.90;;
14377;SDS011;7272;53.668;9.578;2022-09-17T04:51:50;7.47;;;2.70;;
14377;SDS011;7272;53.668;9.578;2022-09-17T04:54:52;8.23;;;2.77;;
14377;SDS011;7272;53.668;9.578;2022-09-17T04:57:53;8.70;;;2.80;;
14377;SDS011;7272;53.668;9.578;2022-09-17T05:00:55;9.60;;;2.97;;
14377;SDS011;7272;53.668;9.578;2022-09-17T05:03:57;10.57;;;2.73;;
14377;SDS011;7272;53.668;9.578;2022-09-17T05:07:00;9.97;;;2.50;;
14377;SDS011;7272;53.668;9.578;2022-09-17T05:10:03;8.07;;;2.30;;
14377;SDS011;7272;53.668;9.578;2022-09-17T05:13:05;6.97;;;2.93;;
14377;SDS011;7272;53.668;9.578;2022-09-17T05:16:07;8.00;;;2.73;;
14377;SDS011;7272;53.668;9.578;2022-09-17T05:19:09;11.83;;;2.97;;
14377;SDS011;7272;53.668;9.578;2022-09-17T05:22:12;11.00;;;3.73;;
14377;SDS011;7272;53.668;9.578;2022-09-17T05:25:15;8.85;;;2.83;;
14377;SDS011;7272;53.668;9.578;2022-09-17T05:28:18;8.50;;;2.30;;
14377;SDS011;7272;53.668;9.578;2022-09-17T05:31:20;7.90;;;2.50;;
14377;SDS011;7272;53.668;9.578;2022-09-17T05:34:22;11.23;;;2.50;;
14377;SDS011;7272;53.668;9.578;2022-09-17T05:37:25;8.00;;;2.43;;
14377;SDS011;7272;53.668;9.578;2022-09-17T05:40:27;8.93;;;2.23;;
14377;SDS011;7272;53.668;9.578;2022-09-17T05:43:30;7.37;;;2.43;;
14377;SDS011;7272;53.668;9.578;2022-09-17T05:46:32;8.57;;;2.17;;
14377;SDS011;7272;53.668;9.578;2022-09-17T05:49:34;7.10;;;2.23;;
14377;SDS011;7272;53.668;9.578;2022-09-17T05:52:37;7.97;;;2.60;;
14377;SDS011;7272;53.668;9.578;2022-09-17T05:55:39;6.20;;;2.45;;
14377;SDS011;7272;53.668;9.578;2022-09-17T05:58:41;6.82;;;2.50;;
14377;SDS011;7272;53.668;9.578;2022-09-17T06:01:43;6.50;;;1.90;;
14377;SDS011;7272;53.668;9.578;2022-09-17T06:04:45;4.20;;;2.00;;
14377;SDS011;7272;53.668;9.578;2022-09-17T06:07:48;5.30;;;1.87;;
14377;SDS011;7272;53.668;9.578;2022-09-17T06:10:50;4.83;;;1.93;;
14377;SDS011;7272;53.668;9.578;2022-09-17T06:13:52;4.87;;;1.60;;
14377;SDS011;7272;53.668;9.578;2022-09-17T06:16:54;2.77;;;1.30;;
14377;SDS011;7272;53.668;9.578;2022-09-17T06:19:56;3.37;;;1.50;;
14377;SDS011;7272;53.668;9.578;2022-09-17T06:23:00;5.63;;;1.80;;
14377;SDS011;7272;53.668;9.578;2022-09-17T06:26:02;8.67;;;1.97;;
14377;SDS011;7272;53.668;9.578;2022-09-17T06:29:05;5.33;;;2.00;;
14377;SDS011;7272;53.668;9.578;2022-09-17T06:32:07;4.97;;;1.60;;
14377;SDS011;7272;53.668;9.578;2022-09-17T06:35:12;2.57;;;1.00;;
14377;SDS011;7272;53.668;9.578;2022-09-17T06:38:15;1.80;;;1.00;;
14377;SDS011;7272;53.668;9.578;2022-09-17T06:41:17;3.00;;;1.20;;
14377;SDS011;7272;53.668;9.578;2022-09-17T06:44:19;3.70;;;1.23;;
14377;SDS011;7272;53.668;9.578;2022-09-17T06:47:22;3.60;;;1.10;;
14377;SDS011;7272;53.668;9.578;2022-09-17T06:50:24;3.40;;;1.43;;
14377;SDS011;7272;53.668;9.578;2022-09-17T06:53:28;2.63;;;1.30;;
14377;SDS011;7272;53.668;9.578;2022-09-17T06:56:30;4.17;;;1.60;;
14377;SDS011;7272;53.668;9.578;2022-09-17T06:59:33;4.00;;;1.48;;
14377;SDS011;7272;53.668;9.578;2022-09-17T07:02:35;2.83;;;1.53;;
14377;SDS011;7272;53.668;9.578;2022-09-17T07:05:37;4.73;;;1.30;;
14377;SDS011;7272;53.668;9.578;2022-09-17T07:08:40;6.13;;;1.87;;
14377;SDS011;7272;53.668;9.578;2022-09-17T07:11:42;4.73;;;1.83;;
14377;SDS011;7272;53.668;9.578;2022-09-17T07:14:44;4.07;;;1.80;;
14377;SDS011;7272;53.668;9.578;2022-09-17T07:17:46;5.13;;;1.70;;
14377;SDS011;7272;53.668;9.578;2022-09-17T07:20:52;6.00;;;1.60;;
14377;SDS011;7272;53.668;9.578;2022-09-17T07:23:56;6.03;;;2.17;;
14377;SDS011;7272;53.668;9.578;2022-09-17T07:26:58;6.40;;;2.33;;
14377;SDS011;7272;53.668;9.578;2022-09-17T07:30:00;2.33;;;1.47;;
14377;SDS011;7272;53.668;9.578;2022-09-17T07:33:02;4.97;;;1.90;;
14377;SDS011;7272;53.668;9.578;2022-09-17T07:36:05;4.47;;;1.50;;
14377;SDS011;7272;53.668;9.578;2022-09-17T07:39:10;3.50;;;1.90;;
14377;SDS011;7272;53.668;9.578;2022-09-17T07:42:12;4.87;;;1.80;;
14377;SDS011;7272;53.668;9.578;2022-09-17T07:45:14;6.03;;;2.20;;
14377;SDS011;7272;53.668;9.578;2022-09-17T07:48:16;6.30;;;2.00;;
14377;SDS011;7272;53.668;9.578;2022-09-17T07:51:18;7.07;;;2.00;;
14377;SDS011;7272;53.668;9.578;2022-09-17T07:54:23;7.07;;;2.20;;
14377;SDS011;7272;53.668;9.578;2022-09-17T07:57:25;8.20;;;1.90;;
14377;SDS011;7272;53.668;9.578;2022-09-17T08:00:27;3.50;;;1.47;;
14377;SDS011;7272;53.668;9.578;2022-09-17T08:03:29;4.20;;;1.95;;
14377;SDS011;7272;53.668;9.578;2022-09-17T08:06:34;4.13;;;1.83;;
14377;SDS011;7272;53.668;9.578;2022-09-17T08:09:39;4.10;;;1.73;;
14377;SDS011;7272;53.668;9.578;2022-09-17T08:12:40;5.00;;;1.40;;
14377;SDS011;7272;53.668;9.578;2022-09-17T08:15:42;3.60;;;1.50;;
14377;SDS011;7272;53.668;9.578;2022-09-17T08:18:44;4.20;;;1.33;;
14377;SDS011;7272;53.668;9.578;2022-09-17T08:21:47;1.27;;;1.10;;
14377;SDS011;7272;53.668;9.578;2022-09-17T08:24:50;4.33;;;1.53;;
14377;SDS011;7272;53.668;9.578;2022-09-17T08:27:52;4.07;;;1.50;;
14377;SDS011;7272;53.668;9.578;2022-09-17T08:30:58;2.00;;;1.03;;
14377;SDS011;7272;53.668;9.578;2022-09-17T08:34:05;5.53;;;1.25;;
14377;SDS011;7272;53.668;9.578;2022-09-17T08:37:07;5.50;;;1.23;;
14377;SDS011;7272;53.668;9.578;2022-09-17T08:40:13;4.03;;;1.07;;
14377;SDS011;7272;53.668;9.578;2022-09-17T08:43:17;2.80;;;1.40;;
14377;SDS011;7272;53.668;9.578;2022-09-17T08:46:20;2.93;;;1.07;;
14377;SDS011;7272;53.668;9.578;2022-09-17T08:49:24;0.83;;;0.73;;
14377;SDS011;7272;53.668;9.578;2022-09-17T08:52:43;1.87;;;0.83;;
14377;SDS011;7272;53.668;9.578;2022-09-17T08:55:55;3.83;;;1.00;;
14377;SDS011;7272;53.668;9.578;2022-09-17T08:59:03;5.27;;;1.30;;
14377;SDS011;7272;53.668;9.578;2022-09-17T09:02:20;3.05;;;0.98;;
14377;SDS011;7272;53.668;9.578;2022-09-17T09:05:34;3.47;;;1.20;;
14377;SDS011;7272;53.668;9.578;2022-09-17T09:08:43;2.10;;;1.00;;
14377;SDS011;7272;53.668;9.578;2022-09-17T09:11:54;3.30;;;1.03;;
14377;SDS011;7272;53.668;9.578;2022-09-17T09:15:04;1.73;;;0.93;;
14377;SDS011;7272;53.668;9.578;2022-09-17T09:18:16;3.57;;;1.47;;
14377;SDS011;7272;53.668;9.578;2022-09-17T09:21:22;3.33;;;1.03;;
14377;SDS011;7272;53.668;9.578;2022-09-17T09:24:30;2.67;;;0.87;;
14377;SDS011;7272;53.668;9.578;2022-09-17T09:27:42;1.80;;;1.00;;
14377;SDS011;7272;53.668;9.578;2022-09-17T09:30:53;3.33;;;1.47;;
14377;SDS011;7272;53.668;9.578;2022-09-17T09:34:04;3.90;;;1.20;;
14377;SDS011;7272;53.668;9.578;2022-09-17T09:37:10;3.75;;;1.20;;
14377;SDS011;7272;53.668;9.578;2022-09-17T09:40:18;3.60;;;1.50;;
14377;SDS011;7272;53.668;9.578;2022-09-17T09:43:30;2.27;;;1.10;;
14377;SDS011;7272;53.668;9.578;2022-09-17T09:50:17;4.50;;;1.27;;
14377;SDS011;7272;53.668;9.578;2022-09-17T09:53:40;2.30;;;1.10;;
14377;SDS011;7272;53.668;9.578;2022-09-17T09:56:54;3.70;;;1.20;;
14377;SDS011;7272;53.668;9.578;2022-09-17T10:03:30;5.30;;;1.50;;
14377;SDS011;7272;53.668;9.578;2022-09-17T10:06:37;4.33;;;1.47;;
14377;SDS011;7272;53.668;9.578;2022-09-17T10:09:43;4.37;;;1.40;;
14377;SDS011;7272;53.668;9.578;2022-09-17T10:12:46;3.77;;;1.30;;
14377;SDS011;7272;53.668;9.578;2022-09-17T10:15:49;4.67;;;1.30;;
14377;SDS011;7272;53.668;9.578;2022-09-17T10:19:07;2.50;;;1.20;;
14377;SDS011;7272;53.668;9.578;2022-09-17T10:22:22;2.30;;;1.40;;
14377;SDS011;7272;53.668;9.578;2022-09-17T10:25:28;4.03;;;1.40;;
14377;SDS011;7272;53.668;9.578;2022-09-17T10:28:32;2.23;;;1.00;;
14377;SDS011;7272;53.668;9.578;2022-09-17T10:31:48;4.17;;;1.50;;
14377;SDS011;7272;53.668;9.578;2022-09-17T10:34:58;2.53;;;1.30;;
14377;SDS011;7272;53.668;9.578;2022-09-17T10:38:03;5.10;;;1.45;;
14377;SDS011;7272;53.668;9.578;2022-09-17T10:41:15;3.30;;;1.40;;
14377;SDS011;7272;53.668;9.578;2022-09-17T10:44:21;3.07;;;1.60;;
14377;SDS011;7272;53.668;9.578;2022-09-17T10:47:26;3.87;;;1.50;;
14377;SDS011;7272;53.668;9.578;2022-09-17T10:50:30;3.77;;;1.67;;
14377;SDS011;7272;53.668;9.578;2022-09-17T10:53:36;4.97;;;1.97;;
14377;SDS011;7272;53.668;9.578;2022-09-17T10:56:56;4.70;;;1.40;;
14377;SDS011;7272;53.668;9.578;2022-09-17T11:00:02;4.70;;;1.73;;
14377;SDS011;7272;53.668;9.578;2022-09-17T11:06:57;4.53;;;1.50;;
14377;SDS011;7272;53.668;9.578;2022-09-17T11:10:16;4.90;;;1.67;;
14377;SDS011;7272;53.668;9.578;2022-09-17T11:13:27;3.03;;;1.40;;
14377;SDS011;7272;53.668;9.578;2022-09-17T11:16:38;3.57;;;1.50;;
14377;SDS011;7272;53.668;9.578;2022-09-17T11:19:48;2.40;;;1.43;;
14377;SDS011;7272;53.668;9.578;2022-09-17T11:23:02;5.17;;;1.63;;
14377;SDS011;7272;53.668;9.578;2022-09-17T11:26:23;5.20;;;1.83;;
14377;SDS011;7272;53.668;9.578;2022-09-17T11:29:36;4.10;;;1.47;;
14377;SDS011;7272;53.668;9.578;2022-09-17T11:32:50;5.53;;;2.25;;
14377;SDS011;7272;53.668;9.578;2022-09-17T11:36:02;5.10;;;2.30;;
14377;SDS011;7272;53.668;9.578;2022-09-17T11:39:13;4.10;;;1.90;;
14377;SDS011;7272;53.668;9.578;2022-09-17T11:42:21;6.47;;;2.10;;
14377;SDS011;7272;53.668;9.578;2022-09-17T11:45:30;4.77;;;1.87;;
14377;SDS011;7272;53.668;9.578;2022-09-17T11:48:37;4.97;;;1.70;;
14377;SDS011;7272;53.668;9.578;2022-09-17T11:51:47;6.07;;;2.10;;
14377;SDS011;7272;53.668;9.578;2022-09-17T11:54:54;5.00;;;2.03;;
14377;SDS011;7272;53.668;9.578;2022-09-17T11:58:02;6.10;;;2.00;;
14377;SDS011;7272;53.668;9.578;2022-09-17T12:01:12;6.80;;;2.37;;
14377;SDS011;7272;53.668;9.578;2022-09-17T12:04:26;6.33;;;2.53;;
14377;SDS011;7272;53.668;9.578;2022-09-17T12:07:38;6.60;;;1.93;;
14377;SDS011;7272;53.668;9.578;2022-09-17T12:10:47;6.60;;;1.90;;
14377;SDS011;7272;53.668;9.578;2022-09-17T12:13:53;3.13;;;1.83;;
14377;SDS011;7272;53.668;9.578;2022-09-17T12:16:58;6.70;;;2.50;;
14377;SDS011;7272;53.668;9.578;2022-09-17T12:20:04;5.63;;;2.27;;
14377;SDS011;7272;53.668;9.578;2022-09-17T12:23:11;4.95;;;2.22;;
14377;SDS011;7272;53.668;9.578;2022-09-17T12:26:19;6.27;;;2.47;;
14377;SDS011;7272;53.668;9.578;2022-09-17T12:29:31;6.10;;;2.30;;
14377;SDS011;7272;53.668;9.578;2022-09-17T12:32:47;6.63;;;2.43;;
14377;SDS011;7272;53.668;9.578;2022-09-17T12:36:06;6.60;;;2.70;;
14377;SDS011;7272;53.668;9.578;2022-09-17T12:43:02;1.27;;;1.17;;
14377;SDS011;7272;53.668;9.578;2022-09-17T12:46:21;2.57;;;1.10;;
14377;SDS011;7272;53.668;9.578;2022-09-17T12:49:41;2.50;;;1.13;;
14377;SDS011;7272;53.668;9.578;2022-09-17T12:53:02;1.40;;;1.00;;
14377;SDS011;7272;53.668;9.578;2022-09-17T12:56:16;1.83;;;0.90;;
14377;SDS011;7272;53.668;9.578;2022-09-17T12:59:29;1.20;;;0.90;;
14377;SDS011;7272;53.668;9.578;2022-09-17T13:02:35;2.53;;;0.90;;
14377;SDS011;7272;53.668;9.578;2022-09-17T13:05:44;1.23;;;0.90;;
14377;SDS011;7272;53.668;9.578;2022-09-17T13:09:18;1.63;;;0.70;;
14377;SDS011;7272;53.668;9.578;2022-09-17T13:12:44;1.30;;;0.87;;
14377;SDS011;7272;53.668;9.578;2022-09-17T13:15:52;1.10;;;0.77;;
14377;SDS011;7272;53.668;9.578;2022-09-17T13:19:03;1.38;;;0.80;;
14377;SDS011;7272;53.668;9.578;2022-09-17T13:22:15;1.90;;;0.87;;
14377;SDS011;7272;53.668;9.578;2022-09-17T13:25:18;1.07;;;0.60;;
14377;SDS011;7272;53.668;9.578;2022-09-17T13:28:21;2.00;;;0.73;;
14377;SDS011;7272;53.668;9.578;2022-09-17T13:31:47;2.10;;;0.83;;
14377;SDS011;7272;53.668;9.578;2022-09-17T13:34:51;1.90;;;0.77;;
14377;SDS011;7272;53.668;9.578;2022-09-17T13:37:59;0.80;;;0.80;;
14377;SDS011;7272;53.668;9.578;2022-09-17T13:41:16;2.30;;;0.90;;
14377;SDS011;7272;53.668;9.578;2022-09-17T13:44:20;2.43;;;0.70;;
14377;SDS011;7272;53.668;9.578;2022-09-17T13:47:25;2.57;;;0.90;;
14377;SDS011;7272;53.668;9.578;2022-09-17T13:50:39;2.30;;;0.80;;
14377;SDS011;7272;53.668;9.578;2022-09-17T13:53:42;1.10;;;0.80;;
14377;SDS011;7272;53.668;9.578;2022-09-17T13:57:04;2.73;;;0.87;;
14377;SDS011;7272;53.668;9.578;2022-09-17T14:00:27;2.30;;;0.80;;
14377;SDS011;7272;53.668;9.578;2022-09-17T14:03:50;2.55;;;0.98;;
14377;SDS011;7272;53.668;9.578;2022-09-17T14:06:56;2.40;;;1.00;;
14377;SDS011;7272;53.668;9.578;2022-09-17T14:09:59;4.00;;;1.60;;
14377;SDS011;7272;53.668;9.578;2022-09-17T14:16:48;1.90;;;1.00;;
14377;SDS011;7272;53.668;9.578;2022-09-17T14:19:55;4.73;;;1.20;;
14377;SDS011;7272;53.668;9.578;2022-09-17T14:23:08;3.80;;;1.20;;
14377;SDS011;7272;53.668;9.578;2022-09-17T14:26:17;3.37;;;1.30;;
14377;SDS011;7272;53.668;9.578;2022-09-17T14:33:05;3.97;;;1.70;;
14377;SDS011;7272;53.668;9.578;2022-09-17T14:36:26;4.17;;;1.57;;
14377;SDS011;7272;53.668;9.578;2022-09-17T14:39:47;7.30;;;2.30;;
14377;SDS011;7272;53.668;9.578;2022-09-17T14:43:09;7.30;;;2.70;;
14377;SDS011;7272;53.668;9.578;2022-09-17T14:46:54;7.53;;;2.97;;
14377;SDS011;7272;53.668;9.578;2022-09-17T15:01:41;10.07;;;2.57;;
14377;SDS011;7272;53.668;9.578;2022-09-17T15:05:24;6.00;;;2.20;;
14377;SDS011;7272;53.668;9.578;2022-09-17T15:08:47;9.45;;;2.55;;
14377;SDS011;7272;53.668;9.578;2022-09-17T15:13:12;7.15;;;2.63;;
14377;SDS011;7272;53.668;9.578;2022-09-17T15:16:26;7.13;;;2.37;;
14377;SDS011;7272;53.668;9.578;2022-09-17T15:23:54;7.50;;;2.37;;
14377;SDS011;7272;53.668;9.578;2022-09-17T15:27:01;5.43;;;2.27;;
14377;SDS011;7272;53.668;9.578;2022-09-17T15:30:08;8.50;;;2.50;;
14377;SDS011;7272;53.668;9.578;2022-09-17T15:33:14;5.55;;;2.20;;
14377;SDS011;7272;53.668;9.578;2022-09-17T15:36:19;4.10;;;1.70;;
14377;SDS011;7272;53.668;9.578;2022-09-17T15:39:30;6.50;;;2.07;;
14377;SDS011;7272;53.668;9.578;2022-09-17T15:42:39;4.23;;;1.77;;
14377;SDS011;7272;53.668;9.578;2022-09-17T15:45:50;4.73;;;2.00;;
14377;SDS011;7272;53.668;9.578;2022-09-17T15:48:52;8.37;;;2.37;;
14377;SDS011;7272;53.668;9.578;2022-09-17T15:51:54;6.10;;;1.90;;
14377;SDS011;7272;53.668;9.578;2022-09-17T15:55:27;7.78;;;2.40;;
14377;SDS011;7272;53.668;9.578;2022-09-17T15:58:31;6.47;;;2.10;;
14377;SDS011;7272;53.668;9.578;2022-09-17T16:08:32;5.87;;;2.00;;
14377;SDS011;7272;53.668;9.578;2022-09-17T16:11:36;6.63;;;1.90;;
14377;SDS011;7272;53.668;9.578;2022-09-17T16:14:46;5.17;;;2.17;;
14377;SDS011;7272;53.668;9.578;2022-09-17T16:17:50;4.30;;;2.15;;
14377;SDS011;7272;53.668;9.578;2022-09-17T16:20:52;3.92;;;1.60;;
14377;SDS011;7272;53.668;9.578;2022-09-17T16:23:53;3.43;;;1.77;;
14377;SDS011;7272;53.668;9.578;2022-09-17T16:26:58;2.13;;;1.30;;
14377;SDS011;7272;53.668;9.578;2022-09-17T16:30:00;3.33;;;1.40;;
14377;SDS011;7272;53.668;9.578;2022-09-17T16:33:05;4.20;;;1.80;;
14377;SDS011;7272;53.668;9.578;2022-09-17T16:36:07;3.13;;;1.40;;
14377;SDS011;7272;53.668;9.578;2022-09-17T16:39:08;3.30;;;1.70;;
14377;SDS011;7272;53.668;9.578;2022-09-17T16:42:12;2.47;;;1.50;;
14377;SDS011;7272;53.668;9.578;2022-09-17T16:45:15;2.75;;;1.83;;
14377;SDS011;7272;53.668;9.578;2022-09-17T16:48:17;3.70;;;2.37;;
14377;SDS011;7272;53.668;9.578;2022-09-17T16:51:18;2.43;;;1.57;;
14377;SDS011;7272;53.668;9.578;2022-09-17T16:54:21;1.97;;;1.30;;
14377;SDS011;7272;53.668;9.578;2022-09-17T16:57:24;3.83;;;1.50;;
14377;SDS011;7272;53.668;9.578;2022-09-17T17:00:26;2.00;;;1.17;;
14377;SDS011;7272;53.668;9.578;2022-09-17T17:03:28;2.27;;;1.20;;
14377;SDS011;7272;53.668;9.578;2022-09-17T17:06:30;1.53;;;1.00;;
14377;SDS011;7272;53.668;9.578;2022-09-17T17:09:32;2.53;;;1.10;;
14377;SDS011;7272;53.668;9.578;2022-09-17T17:12:35;1.30;;;1.10;;
14377;SDS011;7272;53.668;9.578;2022-09-17T17:15:39;1.77;;;1.13;;
14377;SDS011;7272;53.668;9.578;2022-09-17T17:18:41;1.23;;;1.00;;
14377;SDS011;7272;53.668;9.578;2022-09-17T17:21:43;1.17;;;0.90;;
14377;SDS011;7272;53.668;9.578;2022-09-17T17:24:45;1.00;;;1.00;;
14377;SDS011;7272;53.668;9.578;2022-09-17T17:27:48;1.40;;;1.10;;
14377;SDS011;7272;53.668;9.578;2022-09-17T17:30:50;2.17;;;1.40;;
14377;SDS011;7272;53.668;9.578;2022-09-17T17:33:52;2.87;;;1.50;;
14377;SDS011;7272;53.668;9.578;2022-09-17T17:36:54;4.68;;;1.65;;
14377;SDS011;7272;53.668;9.578;2022-09-17T17:39:56;4.70;;;1.60;;
14377;SDS011;7272;53.668;9.578;2022-09-17T17:43:00;2.50;;;1.53;;
14377;SDS011;7272;53.668;9.578;2022-09-17T17:46:03;2.53;;;1.53;;
14377;SDS011;7272;53.668;9.578;2022-09-17T17:49:06;4.43;;;1.70;;
14377;SDS011;7272;53.668;9.578;2022-09-17T17:52:08;5.63;;;1.83;;
14377;SDS011;7272;53.668;9.578;2022-09-17T17:55:10;3.87;;;1.53;;
14377;SDS011;7272;53.668;9.578;2022-09-17T17:58:13;6.83;;;1.93;;
14377;SDS011;7272;53.668;9.578;2022-09-17T18:01:16;10.80;;;3.55;;
14377;SDS011;7272;53.668;9.578;2022-09-17T18:04:19;12.63;;;3.30;;
14377;SDS011;7272;53.668;9.578;2022-09-17T18:07:21;12.17;;;3.60;;
14377;SDS011;7272;53.668;9.578;2022-09-17T18:10:23;9.83;;;2.77;;
14377;SDS011;7272;53.668;9.578;2022-09-17T18:13:26;8.97;;;2.60;;
14377;SDS011;7272;53.668;9.578;2022-09-17T18:16:28;16.33;;;3.47;;
14377;SDS011;7272;53.668;9.578;2022-09-17T18:19:30;8.40;;;2.67;;
14377;SDS011;7272;53.668;9.578;2022-09-17T18:22:32;6.63;;;2.27;;
14377;SDS011;7272;53.668;9.578;2022-09-17T18:25:34;9.13;;;2.60;;
14377;SDS011;7272;53.668;9.578;2022-09-17T18:28:37;9.45;;;3.22;;
14377;SDS011;7272;53.668;9.578;2022-09-17T18:31:40;7.23;;;2.63;;
14377;SDS011;7272;53.668;9.578;2022-09-17T18:34:43;11.07;;;3.17;;
14377;SDS011;7272;53.668;9.578;2022-09-17T18:37:45;7.17;;;2.43;;
14377;SDS011;7272;53.668;9.578;2022-09-17T18:40:47;8.13;;;2.53;;
14377;SDS011;7272;53.668;9.578;2022-09-17T18:43:51;7.93;;;2.53;;
14377;SDS011;7272;53.668;9.578;2022-09-17T18:46:53;8.30;;;2.20;;
14377;SDS011;7272;53.668;9.578;2022-09-17T18:49:55;7.03;;;2.67;;
14377;SDS011;7272;53.668;9.578;2022-09-17T18:52:57;8.40;;;3.00;;
14377;SDS011;7272;53.668;9.578;2022-09-17T18:56:00;8.52;;;2.97;;
14377;SDS011;7272;53.668;9.578;2022-09-17T18:59:06;8.73;;;2.43;;
14377;SDS011;7272;53.668;9.578;2022-09-17T19:02:08;10.43;;;3.17;;
14377;SDS011;7272;53.668;9.578;2022-09-17T19:05:12;11.07;;;3.20;;
14377;SDS011;7272;53.668;9.578;2022-09-17T19:08:16;5.83;;;2.00;;
14377;SDS011;7272;53.668;9.578;2022-09-17T19:11:21;8.67;;;2.57;;
14377;SDS011;7272;53.668;9.578;2022-09-17T19:14:24;3.80;;;1.90;;
14377;SDS011;7272;53.668;9.578;2022-09-17T19:17:26;7.77;;;2.60;;
14377;SDS011;7272;53.668;9.578;2022-09-17T19:20:28;8.60;;;3.00;;
14377;SDS011;7272;53.668;9.578;2022-09-17T19:23:34;9.23;;;3.20;;
14377;SDS011;7272;53.668;9.578;2022-09-17T19:26:40;11.47;;;3.67;;
14377;SDS011;7272;53.668;9.578;2022-09-17T19:29:43;5.57;;;1.77;;
14377;SDS011;7272;53.668;9.578;2022-09-17T19:32:45;6.93;;;2.50;;
14377;SDS011;7272;53.668;9.578;2022-09-17T19:35:47;6.83;;;2.30;;
14377;SDS011;7272;53.668;9.578;2022-09-17T19:38:50;6.00;;;1.77;;
14377;SDS011;7272;53.668;9.578;2022-09-17T19:41:52;6.30;;;2.37;;
14377;SDS011;7272;53.668;9.578;2022-09-17T19:44:55;10.17;;;2.47;;
14377;SDS011;7272;53.668;9.578;2022-09-17T19:47:57;8.20;;;2.58;;